Time;durP1;ratioP1;P1;durP2;ratioP2;P2;SDS_P1;SDS_P2;PMS_P1;PMS_P2;Temp;Humidity;BMP_temperature;BMP_pressure;BME280_temperature;BME280_humidity;BME280_pressure;Samples;Min_cycle;Max_cycle;Signal;HPM_P1;HPM_P2
2022/05/09 00:00:34;;;;;;;9.47;5.63;;;;;;;;;;2056936;28;20058;-60
2022/05/09 00:01:36;;;;;;;10.60;6.53;;;;;;;;;;2056916;28;20689;-60
2022/05/09 00:02:37;;;;;;;10.38;5.40;;;;;;;;;;2056955;28;20073;-60
2022/05/09 00:03:39;;;;;;;11.43;5.72;;;;;;;;;;2057026;28;20101;-60
2022/05/09 00:04:41;;;;;;;12.13;5.88;;;;;;;;;;2057062;28;20228;-60
2022/05/09 00:05:42;;;;;;;10.85;5.35;;;;;;;;;;2057097;28;20057;-60
2022/05/09 00:06:43;;;;;;;11.10;5.60;;;;;;;;;;2057038;28;20054;-60
2022/05/09 00:07:45;;;;;;;12.50;5.20;;;;;;;;;;2056957;28;20122;-60
2022/05/09 00:08:45;;;;;;;11.52;5.80;;;;;;;;;;2056858;28;20138;-60
2022/05/09 00:09:47;;;;;;;10.30;5.47;;;;;;;;;;2056209;28;20047;-60
2022/05/09 00:10:48;;;;;;;12.77;5.68;;;;;;;;;;2056549;28;20489;-60
2022/05/09 00:11:49;;;;;;;12.77;6.43;;;;;;;;;;2056858;28;20053;-60
2022/05/09 00:12:50;;;;;;;10.80;5.13;;;;;;;;;;2057065;28;20051;-60
2022/05/09 00:13:52;;;;;;;13.23;5.72;;;;;;;;;;2056831;28;20564;-59
2022/05/09 00:14:54;;;;;;;11.15;5.30;;;;;;;;;;2056915;28;20137;-60
2022/05/09 00:15:55;;;;;;;8.60;4.45;;;;;;;;;;2056955;28;20129;-60
2022/05/09 00:16:57;;;;;;;7.93;4.60;;;;;;;;;;2056866;28;20051;-60
2022/05/09 00:17:57;;;;;;;9.02;5.07;;;;;;;;;;2056798;28;20051;-60
2022/05/09 00:18:59;;;;;;;13.40;5.23;;;;;;;;;;2056495;28;20050;-60
2022/05/09 00:20:00;;;;;;;9.13;5.20;;;;;;;;;;2056875;28;20346;-60
2022/05/09 00:21:01;;;;;;;10.43;5.53;;;;;;;;;;2056896;28;20134;-60
2022/05/09 00:22:02;;;;;;;12.50;6.38;;;;;;;;;;2056843;28;20546;-60
2022/05/09 00:23:04;;;;;;;9.05;5.22;;;;;;;;;;2056808;28;20465;-60
2022/05/09 00:24:05;;;;;;;11.93;5.05;;;;;;;;;;2056988;28;20046;-60
2022/05/09 00:25:07;;;;;;;12.68;5.43;;;;;;;;;;2056814;28;20134;-60
2022/05/09 00:26:08;;;;;;;10.38;5.25;;;;;;;;;;2057076;28;20047;-60
2022/05/09 00:27:09;;;;;;;11.37;5.30;;;;;;;;;;2064793;28;20101;-60
2022/05/09 00:28:10;;;;;;;11.15;5.22;;;;;;;;;;2065007;28;20315;-60
2022/05/09 00:29:13;;;;;;;10.77;5.40;;;;;;;;;;2065004;28;20600;-60
2022/05/09 00:30:15;;;;;;;10.90;4.72;;;;;;;;;;2064941;28;20129;-60
2022/05/09 00:31:15;;;;;;;10.85;5.00;;;;;;;;;;2064829;28;20504;-60
2022/05/09 00:32:17;;;;;;;10.47;5.03;;;;;;;;;;2064901;28;20046;-60
2022/05/09 00:33:18;;;;;;;11.00;5.50;;;;;;;;;;2064763;28;20770;-60
2022/05/09 00:34:21;;;;;;;10.97;5.67;;;;;;;;;;2064832;28;20053;-60
2022/05/09 00:35:22;;;;;;;11.00;5.25;;;;;;;;;;2064765;28;20500;-60
2022/05/09 00:36:24;;;;;;;9.68;5.30;;;;;;;;;;2064684;28;20053;-60
2022/05/09 00:37:25;;;;;;;11.88;4.82;;;;;;;;;;2064768;28;20480;-60
2022/05/09 00:38:26;;;;;;;8.97;4.57;;;;;;;;;;2064674;28;20054;-60
2022/05/09 00:39:27;;;;;;;9.73;5.22;;;;;;;;;;2064643;28;20310;-60
2022/05/09 00:40:28;;;;;;;10.00;4.53;;;;;;;;;;2065102;28;20051;-60
2022/05/09 00:41:31;;;;;;;7.60;4.60;;;;;;;;;;2064726;28;20046;-60
2022/05/09 00:42:34;;;;;;;11.93;4.30;;;;;;;;;;2064799;28;20503;-60
2022/05/09 00:43:36;;;;;;;7.07;3.95;;;;;;;;;;2064667;28;20053;-60
2022/05/09 00:44:38;;;;;;;8.05;4.65;;;;;;;;;;2064702;28;20571;-60
2022/05/09 00:45:39;;;;;;;8.00;4.32;;;;;;;;;;2064682;28;20523;-60
2022/05/09 00:46:41;;;;;;;8.32;4.60;;;;;;;;;;2064877;28;20050;-60
2022/05/09 00:47:43;;;;;;;6.70;4.00;;;;;;;;;;2064836;28;20129;-60
2022/05/09 00:48:44;;;;;;;12.27;4.88;;;;;;;;;;2064642;28;20080;-60
2022/05/09 00:49:49;;;;;;;9.52;4.80;;;;;;;;;;2064786;28;20134;-60
2022/05/09 00:50:51;;;;;;;8.68;4.50;;;;;;;;;;2064749;28;20514;-60
2022/05/09 00:51:55;;;;;;;7.80;3.97;;;;;;;;;;2064732;28;20123;-60
2022/05/09 00:52:58;;;;;;;9.95;4.47;;;;;;;;;;2064661;28;20137;-60
2022/05/09 00:54:02;;;;;;;9.20;4.53;;;;;;;;;;2064583;28;20560;-60
2022/05/09 00:55:06;;;;;;;9.20;4.80;;;;;;;;;;2064628;28;20038;-60
2022/05/09 00:56:11;;;;;;;9.07;4.43;;;;;;;;;;2064778;28;20047;-60
2022/05/09 00:57:15;;;;;;;8.93;4.03;;;;;;;;;;2064810;28;20050;-60
2022/05/09 00:58:20;;;;;;;7.38;4.00;;;;;;;;;;2064848;28;20129;-60
2022/05/09 00:59:21;;;;;;;7.78;4.38;;;;;;;;;;2064561;28;20096;-60
2022/05/09 01:00:24;;;;;;;7.00;4.22;;;;;;;;;;2064796;28;20184;-61
2022/05/09 01:01:25;;;;;;;8.38;4.32;;;;;;;;;;2064583;28;20184;-60
2022/05/09 01:02:26;;;;;;;6.85;4.32;;;;;;;;;;2064614;28;20484;-60
2022/05/09 01:03:30;;;;;;;9.27;4.05;;;;;;;;;;2064584;28;20054;-60
2022/05/09 01:04:35;;;;;;;8.00;4.40;;;;;;;;;;2064761;28;20050;-60
2022/05/09 01:05:37;;;;;;;7.05;3.85;;;;;;;;;;2064591;28;20188;-60
2022/05/09 01:06:39;;;;;;;8.10;4.30;;;;;;;;;;2064679;28;20141;-60
2022/05/09 01:07:40;;;;;;;10.75;4.32;;;;;;;;;;2064557;28;20050;-60
2022/05/09 01:08:41;;;;;;;9.90;4.63;;;;;;;;;;2058428;28;20057;-60
2022/05/09 01:09:42;;;;;;;9.43;5.30;;;;;;;;;;2056656;28;20120;-60
2022/05/09 01:10:43;;;;;;;17.60;7.30;;;;;;;;;;2056521;28;20050;-60
2022/05/09 01:11:44;;;;;;;13.93;6.78;;;;;;;;;;2056748;28;20177;-60
2022/05/09 01:12:45;;;;;;;15.25;6.28;;;;;;;;;;2056591;28;20337;-60
2022/05/09 01:13:48;;;;;;;16.13;6.53;;;;;;;;;;2056665;28;20047;-60
2022/05/09 01:14:49;;;;;;;15.70;6.72;;;;;;;;;;2056508;28;20059;-60
2022/05/09 01:15:53;;;;;;;21.80;9.32;;;;;;;;;;2056659;28;20134;-60
2022/05/09 01:16:54;;;;;;;14.30;6.30;;;;;;;;;;2056577;28;20082;-60
2022/05/09 01:17:55;;;;;;;18.30;7.53;;;;;;;;;;2056566;28;20059;-60
2022/05/09 01:18:58;;;;;;;17.00;7.13;;;;;;;;;;2056307;28;20078;-61
2022/05/09 01:20:00;;;;;;;19.30;7.80;;;;;;;;;;2056472;28;20501;-61
2022/05/09 01:21:02;;;;;;;14.15;6.50;;;;;;;;;;2056216;28;20514;-60
2022/05/09 01:22:05;;;;;;;13.63;6.15;;;;;;;;;;2056514;28;20049;-61
2022/05/09 01:23:07;;;;;;;20.00;6.95;;;;;;;;;;2062464;28;20492;-60
2022/05/09 01:24:13;;;;;;;15.15;6.45;;;;;;;;;;2064517;28;20061;-60
2022/05/09 01:25:16;;;;;;;14.95;6.10;;;;;;;;;;2064717;28;20133;-60
2022/05/09 01:26:17;;;;;;;15.40;6.07;;;;;;;;;;2064488;28;20569;-60
2022/05/09 01:27:18;;;;;;;15.50;6.13;;;;;;;;;;2064524;28;20055;-60
2022/05/09 01:28:19;;;;;;;10.23;5.35;;;;;;;;;;2064532;28;20180;-60
2022/05/09 01:29:24;;;;;;;13.73;6.17;;;;;;;;;;2064537;28;20141;-61
2022/05/09 01:30:31;;;;;;;9.88;5.32;;;;;;;;;;2064624;28;20046;-47
2022/05/09 01:31:32;;;;;;;10.07;5.10;;;;;;;;;;2064558;28;20120;-47
2022/05/09 01:32:34;;;;;;;11.30;5.45;;;;;;;;;;2064612;28;20242;-49
2022/05/09 01:33:43;;;;;;;9.45;4.88;;;;;;;;;;2064597;28;20046;-47
2022/05/09 01:34:46;;;;;;;8.27;4.40;;;;;;;;;;2064458;28;20058;-47
2022/05/09 01:35:50;;;;;;;8.20;4.65;;;;;;;;;;2064605;28;20137;-50
2022/05/09 01:36:54;;;;;;;8.57;4.55;;;;;;;;;;2064576;28;20133;-48
2022/05/09 01:38:01;;;;;;;9.43;4.78;;;;;;;;;;2064487;28;20043;-48
2022/05/09 01:39:03;;;;;;;8.80;3.97;;;;;;;;;;2064488;28;20137;-49
2022/05/09 01:40:05;;;;;;;10.70;4.95;;;;;;;;;;2064389;28;20077;-47
2022/05/09 01:41:07;;;;;;;6.00;3.92;;;;;;;;;;2064452;28;20054;-47
2022/05/09 01:42:09;;;;;;;6.22;4.25;;;;;;;;;;2064427;28;20145;-47
2022/05/09 01:43:11;;;;;;;11.20;4.47;;;;;;;;;;2064409;28;20603;-47
2022/05/09 01:44:12;;;;;;;7.70;4.53;;;;;;;;;;2064377;28;20057;-47
2022/05/09 01:45:13;;;;;;;7.15;4.35;;;;;;;;;;2064442;28;20138;-48
2022/05/09 01:46:15;;;;;;;8.93;3.88;;;;;;;;;;2064457;28;20137;-47
2022/05/09 01:49:55;;;;;;;6.82;4.00;;;;;;;;;;2064387;28;20473;-46
2022/05/09 01:50:56;;;;;;;10.55;3.95;;;;;;;;;;2064291;28;20571;-48
2022/05/09 01:51:58;;;;;;;7.07;3.83;;;;;;;;;;2064576;28;20054;-49
2022/05/09 01:53:00;;;;;;;6.97;3.83;;;;;;;;;;2064421;28;20055;-49
2022/05/09 01:54:01;;;;;;;5.03;3.50;;;;;;;;;;2064321;28;20571;-48
2022/05/09 01:55:02;;;;;;;7.28;4.22;;;;;;;;;;2064431;28;20056;-47
2022/05/09 01:56:04;;;;;;;10.13;4.07;;;;;;;;;;2064403;28;20061;-47
2022/05/09 01:57:05;;;;;;;6.28;3.50;;;;;;;;;;2064463;28;20133;-49
2022/05/09 01:58:07;;;;;;;7.10;3.60;;;;;;;;;;2064289;28;20149;-49
2022/05/09 01:59:08;;;;;;;5.95;3.45;;;;;;;;;;2064464;28;20038;-47
2022/05/09 02:00:09;;;;;;;;;;;;;;;;;;2064800;28;20061;-48
2022/05/09 02:01:10;;;;;;;7.53;3.70;;;;;;;;;;2064450;28;20072;-48
2022/05/09 02:02:13;;;;;;;5.03;3.10;;;;;;;;;;2064484;28;20129;-48
2022/05/09 02:03:14;;;;;;;5.80;3.40;;;;;;;;;;2064401;28;20049;-47
2022/05/09 02:04:16;;;;;;;5.33;3.67;;;;;;;;;;2063573;28;20077;-49
2022/05/09 02:05:17;;;;;;;6.93;3.50;;;;;;;;;;2056391;28;20104;-49
2022/05/09 02:06:20;;;;;;;9.05;4.05;;;;;;;;;;2056247;28;20077;-47
2022/05/09 02:07:23;;;;;;;7.03;3.70;;;;;;;;;;2056328;28;20126;-49
2022/05/09 02:08:25;;;;;;;8.10;3.80;;;;;;;;;;2056223;28;20058;-49
2022/05/09 02:09:26;;;;;;;7.15;3.70;;;;;;;;;;2056141;28;20444;-47
2022/05/09 02:10:27;;;;;;;5.05;2.80;;;;;;;;;;2056420;28;20153;-49
2022/05/09 02:11:29;;;;;;;7.83;3.73;;;;;;;;;;2056210;28;20051;-47
2022/05/09 02:12:30;;;;;;;9.90;3.65;;;;;;;;;;2056364;28;20069;-47
2022/05/09 02:13:31;;;;;;;5.47;3.90;;;;;;;;;;2056156;28;20202;-48
2022/05/09 02:14:32;;;;;;;8.10;3.72;;;;;;;;;;2056588;28;20082;-60
2022/05/09 02:15:33;;;;;;;7.10;3.33;;;;;;;;;;2056233;28;20051;-60
2022/05/09 02:16:53;;;;;;;4.90;3.20;;;;;;;;;;2056274;28;20420;-60
2022/05/09 02:17:54;;;;;;;6.85;3.28;;;;;;;;;;2056250;28;20062;-60
2022/05/09 02:18:56;;;;;;;6.30;3.67;;;;;;;;;;2058651;28;20174;-60
2022/05/09 02:19:58;;;;;;;5.68;3.63;;;;;;;;;;2064317;28;20125;-59
2022/05/09 02:21:00;;;;;;;5.57;3.10;;;;;;;;;;2064351;28;20130;-60
2022/05/09 02:22:01;;;;;;;5.60;3.30;;;;;;;;;;2064370;28;20461;-59
2022/05/09 02:23:02;;;;;;;5.85;3.42;;;;;;;;;;2064399;28;20129;-60
2022/05/09 02:24:04;;;;;;;7.57;3.60;;;;;;;;;;2064423;28;20043;-60
2022/05/09 02:25:26;;;;;;;6.15;3.42;;;;;;;;;;2064130;28;20797;-59
2022/05/09 02:26:27;;;;;;;5.75;3.33;;;;;;;;;;2064162;28;20133;-60
2022/05/09 02:27:28;;;;;;;6.72;3.35;;;;;;;;;;2064268;28;20110;-60
2022/05/09 02:28:29;;;;;;;5.33;3.40;;;;;;;;;;2064378;28;20074;-60
2022/05/09 02:29:31;;;;;;;5.50;3.40;;;;;;;;;;2064189;28;20407;-60
2022/05/09 02:30:32;;;;;;;6.15;3.30;;;;;;;;;;2064336;28;20141;-60
2022/05/09 02:31:34;;;;;;;5.43;3.25;;;;;;;;;;2064153;28;20133;-60
2022/05/09 02:32:35;;;;;;;;;;;;;;;;;;2064760;28;20047;-60
2022/05/09 02:33:36;;;;;;;5.25;3.25;;;;;;;;;;2064798;28;20363;-60
2022/05/09 02:34:38;;;;;;;6.13;4.03;;;;;;;;;;2065721;28;20154;-60
2022/05/09 02:35:39;;;;;;;5.60;3.45;;;;;;;;;;2065513;28;20137;-60
2022/05/09 02:36:41;;;;;;;6.55;3.55;;;;;;;;;;2065708;28;20052;-60
2022/05/09 02:37:42;;;;;;;7.95;3.50;;;;;;;;;;2065698;28;20189;-60
2022/05/09 02:38:43;;;;;;;5.43;3.90;;;;;;;;;;2065601;28;20101;-60
2022/05/09 02:39:46;;;;;;;8.18;3.92;;;;;;;;;;2065798;28;20689;-61
2022/05/09 02:40:47;;;;;;;6.57;3.35;;;;;;;;;;2065518;28;20039;-60
2022/05/09 02:41:48;;;;;;;7.57;3.63;;;;;;;;;;2065617;28;20129;-60
2022/05/09 02:42:49;;;;;;;5.43;3.80;;;;;;;;;;2065494;28;20046;-60
2022/05/09 02:43:50;;;;;;;8.40;3.67;;;;;;;;;;2065432;28;20116;-59
2022/05/09 02:44:52;;;;;;;6.65;4.13;;;;;;;;;;2065496;28;20184;-60
2022/05/09 02:45:55;;;;;;;5.88;3.90;;;;;;;;;;2065532;28;20499;-60
2022/05/09 02:46:56;;;;;;;7.10;3.92;;;;;;;;;;2065551;28;20096;-61
2022/05/09 02:47:57;;;;;;;7.25;3.92;;;;;;;;;;2065580;28;20043;-60
2022/05/09 02:48:59;;;;;;;5.57;3.77;;;;;;;;;;2065588;28;20635;-60
2022/05/09 02:50:00;;;;;;;5.20;3.65;;;;;;;;;;2065559;28;20125;-60
2022/05/09 02:51:02;;;;;;;6.55;3.35;;;;;;;;;;2065445;28;20053;-60
2022/05/09 02:52:04;;;;;;;8.95;3.55;;;;;;;;;;2065526;28;20042;-60
2022/05/09 02:53:07;;;;;;;8.10;3.55;;;;;;;;;;2065563;28;20085;-60
2022/05/09 02:54:09;;;;;;;8.38;3.70;;;;;;;;;;2065406;28;20129;-60
2022/05/09 02:55:13;;;;;;;8.95;4.32;;;;;;;;;;2065733;28;20125;-47
2022/05/09 02:56:14;;;;;;;5.80;2.95;;;;;;;;;;2065391;28;20050;-47
2022/05/09 02:57:15;;;;;;;7.07;4.07;;;;;;;;;;2065615;28;20058;-46
2022/05/09 02:58:16;;;;;;;9.50;4.10;;;;;;;;;;2065391;28;20046;-46
2022/05/09 02:59:19;;;;;;;7.67;3.80;;;;;;;;;;2065473;28;20078;-46
2022/05/09 03:00:21;;;;;;;7.40;4.30;;;;;;;;;;2065375;28;20141;-48
2022/05/09 03:01:22;;;;;;;6.97;3.72;;;;;;;;;;2057750;28;20042;-48
2022/05/09 03:02:23;;;;;;;7.38;3.22;;;;;;;;;;2057472;28;20061;-48
2022/05/09 03:04:45;;;;;;;5.40;3.53;;;;;;;;;;2057339;28;20046;-47
2022/05/09 03:05:46;;;;;;;7.60;3.85;;;;;;;;;;2057303;28;20125;-47
2022/05/09 03:06:47;;;;;;;6.00;4.25;;;;;;;;;;2057429;28;20129;-47
2022/05/09 03:07:48;;;;;;;5.82;3.58;;;;;;;;;;2057234;28;20504;-46
2022/05/09 03:08:49;;;;;;;7.47;3.80;;;;;;;;;;2057203;28;20047;-47
2022/05/09 03:09:50;;;;;;;6.72;3.97;;;;;;;;;;2057486;28;20130;-48
2022/05/09 03:10:52;;;;;;;7.75;4.85;;;;;;;;;;2057330;28;20141;-47
2022/05/09 03:11:53;;;;;;;;;;;;;;;;;;2057932;28;20137;-60
2022/05/09 03:12:56;;;;;;;6.78;3.47;;;;;;;;;;2057448;28;20020;-60
2022/05/09 03:13:57;;;;;;;6.60;3.38;;;;;;;;;;2057241;28;20050;-60
2022/05/09 03:14:58;;;;;;;7.63;3.83;;;;;;;;;;2058178;28;20051;-60
2022/05/09 03:16:00;;;;;;;7.00;3.70;;;;;;;;;;2065438;28;20053;-61
2022/05/09 03:17:01;;;;;;;;;;;;;;;;;;2065901;28;20052;-60
2022/05/09 03:18:02;;;;;;;7.85;3.95;;;;;;;;;;2065264;28;19951;-60
2022/05/09 03:19:04;;;;;;;8.60;4.03;;;;;;;;;;2059156;28;20410;-60
2022/05/09 03:20:05;;;;;;;8.45;4.07;;;;;;;;;;2057348;28;20133;-61
2022/05/09 03:21:07;;;;;;;9.88;4.65;;;;;;;;;;2057230;28;20096;-60
2022/05/09 03:22:08;;;;;;;8.93;4.20;;;;;;;;;;2057382;28;20039;-60
2022/05/09 03:23:09;;;;;;;7.28;4.03;;;;;;;;;;2057491;28;20078;-48
2022/05/09 03:24:11;;;;;;;8.23;4.22;;;;;;;;;;2057285;28;20197;-47
2022/05/09 03:25:11;;;;;;;6.95;4.07;;;;;;;;;;2057294;28;20049;-47
2022/05/09 03:26:13;;;;;;;6.35;3.88;;;;;;;;;;2057389;28;20125;-47
2022/05/09 03:27:14;;;;;;;9.10;4.05;;;;;;;;;;2057260;28;20420;-47
2022/05/09 03:28:19;;;;;;;8.43;4.10;;;;;;;;;;2057317;28;20054;-48
2022/05/09 03:29:20;;;;;;;8.68;4.30;;;;;;;;;;2057246;28;20408;-47
2022/05/09 03:30:21;;;;;;;8.13;4.15;;;;;;;;;;2057147;28;20058;-47
2022/05/09 03:31:22;;;;;;;8.88;3.90;;;;;;;;;;2057332;28;20074;-47
2022/05/09 03:32:23;;;;;;;7.43;3.45;;;;;;;;;;2057205;28;20121;-47
2022/05/09 03:33:27;;;;;;;8.75;4.15;;;;;;;;;;2057230;28;20137;-47
2022/05/09 03:34:29;;;;;;;9.60;3.70;;;;;;;;;;2057079;28;20205;-47
2022/05/09 03:35:30;;;;;;;;;;;;;;;;;;2057554;28;20242;-48
2022/05/09 03:36:31;;;;;;;8.15;4.10;;;;;;;;;;2057138;28;20061;-47
2022/05/09 03:37:32;;;;;;;5.72;3.72;;;;;;;;;;2057327;28;20134;-46
2022/05/09 03:38:33;;;;;;;7.90;4.20;;;;;;;;;;2057047;28;20526;-47
2022/05/09 03:39:34;;;;;;;10.85;4.30;;;;;;;;;;2057301;28;20053;-46
2022/05/09 03:40:35;;;;;;;8.82;4.93;;;;;;;;;;2057304;28;20396;-46
2022/05/09 03:41:38;;;;;;;10.15;6.15;;;;;;;;;;2057063;28;20538;-47
2022/05/09 03:42:39;;;;;;;11.95;6.18;;;;;;;;;;2057210;28;20051;-47
2022/05/09 03:43:40;;;;;;;13.52;7.80;;;;;;;;;;2057238;28;20142;-49
2022/05/09 03:44:41;;;;;;;16.20;7.83;;;;;;;;;;2057023;28;20051;-46
2022/05/09 03:45:44;;;;;;;12.75;6.15;;;;;;;;;;2057161;28;20423;-47
2022/05/09 03:46:45;;;;;;;11.68;6.63;;;;;;;;;;2057274;28;20542;-47
2022/05/09 03:47:46;;;;;;;9.15;4.55;;;;;;;;;;2057123;28;20057;-48
2022/05/09 03:48:47;;;;;;;9.10;4.70;;;;;;;;;;2057267;28;20086;-49
2022/05/09 03:49:48;;;;;;;8.18;4.22;;;;;;;;;;2057317;28;20047;-60
2022/05/09 03:50:49;;;;;;;10.23;4.13;;;;;;;;;;2057158;28;20096;-60
2022/05/09 03:51:50;;;;;;;7.32;4.55;;;;;;;;;;2057111;28;20306;-61
2022/05/09 03:52:52;;;;;;;7.50;4.03;;;;;;;;;;2057042;28;20125;-61
2022/05/09 03:53:53;;;;;;;5.22;3.58;;;;;;;;;;2057056;28;20082;-60
2022/05/09 03:54:55;;;;;;;6.57;3.87;;;;;;;;;;2057042;28;20578;-60
2022/05/09 03:55:57;;;;;;;7.25;3.67;;;;;;;;;;2057130;28;20050;-60
2022/05/09 03:56:58;;;;;;;6.10;3.25;;;;;;;;;;2056919;28;20134;-60
2022/05/09 03:58:00;;;;;;;8.15;3.95;;;;;;;;;;2057210;28;20050;-60
2022/05/09 03:59:01;;;;;;;7.47;4.00;;;;;;;;;;2056981;28;20055;-61
2022/05/09 04:00:04;;;;;;;7.95;4.00;;;;;;;;;;2056972;28;20489;-60
2022/05/09 04:01:07;;;;;;;4.90;3.13;;;;;;;;;;2056991;28;20058;-60
2022/05/09 04:02:10;;;;;;;9.05;4.10;;;;;;;;;;2056944;28;20407;-60
2022/05/09 04:03:12;;;;;;;5.75;3.30;;;;;;;;;;2057038;28;20047;-60
2022/05/09 04:04:14;;;;;;;5.85;3.33;;;;;;;;;;2056894;28;20515;-60
2022/05/09 04:05:17;;;;;;;6.38;3.58;;;;;;;;;;2056923;28;20085;-61
2022/05/09 04:06:18;;;;;;;4.55;3.00;;;;;;;;;;2056859;28;20485;-60
2022/05/09 04:07:19;;;;;;;6.20;3.53;;;;;;;;;;2056958;28;20126;-60
2022/05/09 04:08:21;;;;;;;5.47;2.90;;;;;;;;;;2057108;28;20078;-47
2022/05/09 04:09:22;;;;;;;4.38;2.70;;;;;;;;;;2056941;28;20046;-47
2022/05/09 04:10:27;;;;;;;4.38;2.72;;;;;;;;;;2056921;28;20189;-47
2022/05/09 04:11:28;;;;;;;5.03;3.25;;;;;;;;;;2059753;28;20051;-46
2022/05/09 04:12:29;;;;;;;4.03;2.70;;;;;;;;;;2065028;28;20057;-47
2022/05/09 04:13:30;;;;;;;5.50;2.70;;;;;;;;;;2064897;28;20571;-46
2022/05/09 04:17:14;;;;;;;3.00;2.20;;;;;;;;;;2065041;28;20058;-49
2022/05/09 04:18:17;;;;;;;4.00;2.15;;;;;;;;;;2065007;28;20050;-47
2022/05/09 04:19:18;;;;;;;3.95;2.20;;;;;;;;;;2056844;28;20050;-48
2022/05/09 04:20:20;;;;;;;3.83;2.47;;;;;;;;;;2056879;28;20489;-47
2022/05/09 04:21:21;;;;;;;3.75;2.38;;;;;;;;;;2057062;28;20057;-48
2022/05/09 04:22:22;;;;;;;4.03;2.25;;;;;;;;;;2056947;28;20401;-47
2022/05/09 04:23:23;;;;;;;3.50;1.93;;;;;;;;;;2056980;28;20054;-48
2022/05/09 04:24:24;;;;;;;3.25;2.28;;;;;;;;;;2056753;28;20452;-47
2022/05/09 04:25:25;;;;;;;7.33;2.33;;;;;;;;;;2056974;28;20105;-46
2022/05/09 04:26:26;;;;;;;4.88;2.20;;;;;;;;;;2056867;28;20047;-50
2022/05/09 04:27:29;;;;;;;4.90;2.40;;;;;;;;;;2056942;28;20055;-47
2022/05/09 04:28:30;;;;;;;4.55;2.20;;;;;;;;;;2056735;28;20130;-48
2022/05/09 04:29:32;;;;;;;4.07;2.20;;;;;;;;;;2056977;28;20089;-49
2022/05/09 04:30:35;;;;;;;3.55;2.50;;;;;;;;;;2056819;28;20935;-46
2022/05/09 04:31:36;;;;;;;4.97;2.42;;;;;;;;;;2056756;28;20112;-47
2022/05/09 04:32:37;;;;;;;3.00;2.35;;;;;;;;;;2056844;28;20062;-48
2022/05/09 04:33:38;;;;;;;3.53;2.40;;;;;;;;;;2056822;28;20047;-47
2022/05/09 04:34:39;;;;;;;3.22;2.25;;;;;;;;;;2056921;28;20091;-48
2022/05/09 04:35:41;;;;;;;2.40;1.90;;;;;;;;;;2056756;28;20043;-48
2022/05/09 04:36:42;;;;;;;3.40;2.20;;;;;;;;;;2057082;28;20046;-48
2022/05/09 04:37:47;;;;;;;3.10;2.20;;;;;;;;;;2056721;28;20151;-49
2022/05/09 04:38:50;;;;;;;3.75;2.38;;;;;;;;;;2056998;28;20181;-46
2022/05/09 04:39:51;;;;;;;3.03;2.13;;;;;;;;;;2056753;28;20047;-47
2022/05/09 04:40:54;;;;;;;2.97;2.10;;;;;;;;;;2056755;28;20386;-47
2022/05/09 04:41:54;;;;;;;3.42;2.30;;;;;;;;;;2057105;28;20042;-61
2022/05/09 04:42:57;;;;;;;5.93;2.67;;;;;;;;;;2056822;28;20488;-61
2022/05/09 04:43:58;;;;;;;2.92;2.10;;;;;;;;;;2056590;28;20550;-61
2022/05/09 04:44:59;;;;;;;3.63;2.20;;;;;;;;;;2056741;28;20055;-61
2022/05/09 04:46:01;;;;;;;5.07;2.17;;;;;;;;;;2056783;28;20134;-61
2022/05/09 04:47:02;;;;;;;4.07;2.35;;;;;;;;;;2056772;28;20061;-61
2022/05/09 04:48:04;;;;;;;4.72;2.30;;;;;;;;;;2056614;28;20058;-61
2022/05/09 04:49:05;;;;;;;3.10;1.90;;;;;;;;;;2056568;28;20129;-61
2022/05/09 04:50:07;;;;;;;4.67;2.50;;;;;;;;;;2056649;28;20053;-61
2022/05/09 04:51:09;;;;;;;3.10;2.10;;;;;;;;;;2056781;28;20050;-61
2022/05/09 04:52:10;;;;;;;3.92;2.42;;;;;;;;;;2056722;28;20105;-61
2022/05/09 04:53:11;;;;;;;3.17;2.27;;;;;;;;;;2056526;28;20050;-61
2022/05/09 04:54:14;;;;;;;4.18;2.17;;;;;;;;;;2056537;28;20409;-61
2022/05/09 04:55:16;;;;;;;3.72;2.03;;;;;;;;;;2056568;28;20142;-61
2022/05/09 04:56:17;;;;;;;;;;;;;;;;;;2056664;28;20521;-61
2022/05/09 04:57:18;;;;;;;3.63;2.55;;;;;;;;;;2056648;28;19969;-61
2022/05/09 04:58:20;;;;;;;3.88;2.40;;;;;;;;;;2057058;28;20074;-61
2022/05/09 04:59:21;;;;;;;3.97;2.47;;;;;;;;;;2056711;28;20553;-47
2022/05/09 05:00:24;;;;;;;4.93;2.90;;;;;;;;;;2056545;28;20054;-48
2022/05/09 05:01:25;;;;;;;4.22;2.13;;;;;;;;;;2056599;28;20574;-47
2022/05/09 05:02:27;;;;;;;2.70;2.20;;;;;;;;;;2056520;28;20097;-47
2022/05/09 05:03:28;;;;;;;5.15;2.22;;;;;;;;;;2056746;28;20051;-48
2022/05/09 05:04:29;;;;;;;3.80;2.50;;;;;;;;;;2056519;28;20086;-48
2022/05/09 05:05:30;;;;;;;5.20;3.08;;;;;;;;;;2056547;28;20054;-47
2022/05/09 05:06:31;;;;;;;2.83;2.10;;;;;;;;;;2056864;28;20551;-47
2022/05/09 05:07:32;;;;;;;5.80;2.75;;;;;;;;;;2057955;28;20294;-49
2022/05/09 05:08:35;;;;;;;3.90;2.30;;;;;;;;;;2064608;28;20479;-47
2022/05/09 05:09:36;;;;;;;4.47;2.70;;;;;;;;;;2064884;28;20077;-47
2022/05/09 05:10:37;;;;;;;3.50;2.20;;;;;;;;;;2064913;28;20484;-62
2022/05/09 05:11:38;;;;;;;3.08;2.05;;;;;;;;;;2064458;28;20133;-62
2022/05/09 05:12:40;;;;;;;3.60;2.20;;;;;;;;;;2064765;28;20129;-62
2022/05/09 05:13:41;;;;;;;3.88;2.80;;;;;;;;;;2064487;28;20544;-62
2022/05/09 05:14:44;;;;;;;3.08;2.05;;;;;;;;;;2064920;28;20054;-46
2022/05/09 05:15:48;;;;;;;3.08;2.30;;;;;;;;;;2064552;28;20077;-47
2022/05/09 05:17:01;;;;;;;4.10;2.40;;;;;;;;;;2064707;28;20078;-46
2022/05/09 05:18:02;;;;;;;4.70;2.70;;;;;;;;;;2064548;28;20343;-49
2022/05/09 05:19:04;;;;;;;5.28;2.53;;;;;;;;;;2058536;28;20050;-49
2022/05/09 05:20:09;;;;;;;4.30;2.38;;;;;;;;;;2056510;28;20051;-46
2022/05/09 05:21:11;;;;;;;4.70;2.72;;;;;;;;;;2056666;28;20085;-47
2022/05/09 05:22:12;;;;;;;;;;;;;;;;;;2057001;28;20133;-47
2022/05/09 05:23:13;;;;;;;4.20;2.33;;;;;;;;;;2056720;28;20048;-62
2022/05/09 05:24:14;;;;;;;2.60;2.05;;;;;;;;;;2056466;28;20074;-62
2022/05/09 05:25:18;;;;;;;4.97;2.70;;;;;;;;;;2056719;28;20077;-62
2022/05/09 05:26:19;;;;;;;6.28;2.30;;;;;;;;;;2056592;28;20173;-62
2022/05/09 05:27:21;;;;;;;3.92;2.40;;;;;;;;;;2056413;28;20436;-62
2022/05/09 05:28:22;;;;;;;3.15;2.13;;;;;;;;;;2056545;28;20130;-62
2022/05/09 05:29:24;;;;;;;3.75;1.92;;;;;;;;;;2056603;28;20130;-62
2022/05/09 05:30:25;;;;;;;3.60;1.95;;;;;;;;;;2056537;28;20130;-62
2022/05/09 05:31:28;;;;;;;4.20;2.30;;;;;;;;;;2056470;28;20133;-62
2022/05/09 05:32:31;;;;;;;2.88;1.95;;;;;;;;;;2056555;28;20051;-62
2022/05/09 05:33:32;;;;;;;3.40;2.25;;;;;;;;;;2056251;28;20595;-62
2022/05/09 05:34:35;;;;;;;3.03;2.13;;;;;;;;;;2056575;28;20054;-62
2022/05/09 05:35:41;;;;;;;5.35;2.20;;;;;;;;;;2056525;28;20074;-62
2022/05/09 05:36:42;;;;;;;4.97;2.03;;;;;;;;;;2056789;28;20181;-62
2022/05/09 05:37:43;;;;;;;3.80;2.15;;;;;;;;;;2056976;28;20110;-47
2022/05/09 05:38:46;;;;;;;3.10;2.20;;;;;;;;;;2056325;28;20146;-47
2022/05/09 05:39:47;;;;;;;2.97;1.92;;;;;;;;;;2056710;28;20136;-47
2022/05/09 05:40:49;;;;;;;4.28;2.33;;;;;;;;;;2056363;28;20492;-49
2022/05/09 05:41:50;;;;;;;2.65;1.80;;;;;;;;;;2056494;28;20047;-47
2022/05/09 05:42:52;;;;;;;3.20;1.90;;;;;;;;;;2056427;28;20046;-47
2022/05/09 05:43:53;;;;;;;2.00;1.60;;;;;;;;;;2056287;28;20101;-46
2022/05/09 05:44:55;;;;;;;2.40;1.43;;;;;;;;;;2056451;28;20126;-46
2022/05/09 05:45:56;;;;;;;3.47;2.05;;;;;;;;;;2056424;28;20054;-46
2022/05/09 05:46:57;;;;;;;2.85;1.90;;;;;;;;;;2056518;28;20047;-47
2022/05/09 05:47:58;;;;;;;2.33;1.75;;;;;;;;;;2056463;28;20129;-47
2022/05/09 05:48:59;;;;;;;2.50;1.80;;;;;;;;;;2056407;28;20054;-48
2022/05/09 05:50:01;;;;;;;2.58;1.80;;;;;;;;;;2056430;28;20368;-47
2022/05/09 05:51:05;;;;;;;3.10;1.92;;;;;;;;;;2056309;28;20424;-47
2022/05/09 05:52:07;;;;;;;3.10;2.08;;;;;;;;;;2056158;28;20134;-47
2022/05/09 05:53:08;;;;;;;;;;;;;;;;;;2056715;28;20576;-47
2022/05/09 05:54:09;;;;;;;4.80;1.95;;;;;;;;;;2056366;28;19964;-49
2022/05/09 05:55:10;;;;;;;3.85;2.05;;;;;;;;;;2056320;28;20500;-47
2022/05/09 05:56:11;;;;;;;3.90;2.30;;;;;;;;;;2056363;28;20125;-46
2022/05/09 05:57:17;;;;;;;2.85;1.85;;;;;;;;;;2056637;28;20122;-47
2022/05/09 05:58:18;;;;;;;4.47;2.40;;;;;;;;;;2056484;28;20051;-63
2022/05/09 05:59:19;;;;;;;3.47;2.65;;;;;;;;;;2056189;28;20386;-63
2022/05/09 06:00:22;;;;;;;4.77;2.93;;;;;;;;;;2056286;28;20062;-64
2022/05/09 06:01:23;;;;;;;4.03;2.30;;;;;;;;;;2056445;28;20201;-64
2022/05/09 06:02:25;;;;;;;3.22;2.08;;;;;;;;;;2056596;28;20193;-46
2022/05/09 06:03:27;;;;;;;3.25;2.28;;;;;;;;;;2056396;28;20133;-63
2022/05/09 06:04:28;;;;;;;3.38;2.50;;;;;;;;;;2063119;28;20089;-63
2022/05/09 06:05:29;;;;;;;3.67;2.28;;;;;;;;;;2064457;28;20404;-48
2022/05/09 06:06:30;;;;;;;3.90;2.10;;;;;;;;;;2064376;28;20046;-47
2022/05/09 06:07:31;;;;;;;2.88;1.83;;;;;;;;;;2064316;28;20181;-49
2022/05/09 06:08:33;;;;;;;3.33;1.90;;;;;;;;;;2064909;28;20627;-46
2022/05/09 06:09:34;;;;;;;4.57;2.13;;;;;;;;;;2065947;28;20050;-64
2022/05/09 06:10:35;;;;;;;6.30;2.03;;;;;;;;;;2065847;28;20054;-64
2022/05/09 06:11:43;;;;;;;3.40;1.75;;;;;;;;;;2065742;28;20046;-47
2022/05/09 06:12:45;;;;;;;3.95;2.00;;;;;;;;;;2066195;28;20042;-47
2022/05/09 06:13:46;;;;;;;2.90;2.22;;;;;;;;;;2065611;28;20133;-46
2022/05/09 06:15:24;;;;;;;2.63;1.90;;;;;;;;;;2066029;28;20047;-47
2022/05/09 06:16:08;;;;;;;3.60;2.13;;;;;;;;;;2065928;28;20070;-49
2022/05/09 06:17:12;;;;;;;2.55;1.63;;;;;;;;;;2065801;28;20042;-47
2022/05/09 06:18:13;;;;;;;3.40;1.83;;;;;;;;;;2065702;28;20584;-49